createdAt,value
2018-06-05T00:00:55.223Z,99.90
2018-06-05T00:03:23.506Z,99.90
2018-06-05T00:05:51.819Z,99.90
2018-06-05T00:08:20.114Z,99.90
2018-06-05T00:10:48.408Z,99.90
2018-06-05T00:13:16.739Z,99.90
2018-06-05T00:15:45.028Z,99.90
2018-06-05T00:18:13.330Z,99.90
2018-06-05T00:20:41.622Z,99.90
2018-06-05T00:23:09.970Z,99.90
2018-06-05T00:25:38.286Z,99.90
2018-06-05T00:28:06.648Z,99.90
2018-06-05T00:30:34.982Z,99.90
2018-06-05T00:33:03.293Z,99.90
2018-06-05T00:35:31.660Z,99.90
2018-06-05T00:38:00.004Z,99.90
2018-06-05T00:40:28.310Z,99.90
2018-06-05T00:42:56.638Z,99.90
2018-06-05T00:45:24.965Z,99.90
2018-06-05T00:47:53.259Z,99.90
2018-06-05T00:50:21.571Z,99.90
2018-06-05T00:52:49.901Z,99.90
2018-06-05T00:55:18.228Z,99.90
2018-06-05T00:57:46.549Z,99.90
2018-06-05T01:00:14.853Z,99.90
2018-06-05T01:02:43.181Z,99.90
2018-06-05T01:05:11.540Z,99.90
2018-06-05T01:07:39.867Z,99.90
2018-06-05T01:10:08.199Z,99.90
2018-06-05T01:12:36.513Z,99.90
2018-06-05T01:15:04.841Z,99.90
2018-06-05T01:17:33.201Z,99.90
2018-06-05T01:20:01.578Z,99.90
2018-06-05T01:22:29.894Z,99.90
2018-06-05T01:24:58.198Z,99.90
2018-06-05T01:27:26.491Z,99.90
2018-06-05T01:29:54.795Z,99.90
2018-06-05T01:32:23.127Z,99.90
2018-06-05T01:34:51.421Z,99.90
2018-06-05T01:37:19.723Z,99.90
2018-06-05T01:39:48.059Z,99.90
2018-06-05T01:42:16.363Z,99.90
2018-06-05T01:44:44.689Z,99.90
2018-06-05T01:47:13.034Z,99.90
2018-06-05T01:49:41.604Z,99.90
2018-06-05T01:52:10.099Z,99.90
2018-06-05T01:54:38.393Z,99.90
2018-06-05T01:57:06.751Z,99.90
2018-06-05T01:59:35.103Z,99.90
2018-06-05T02:02:03.509Z,99.90
2018-06-05T02:11:16.860Z,99.90
2018-06-05T02:13:45.125Z,99.90
2018-06-05T02:16:13.410Z,99.90
2018-06-05T02:18:41.746Z,99.90
2018-06-05T02:21:10.052Z,99.90
2018-06-05T02:23:38.328Z,99.90
2018-06-05T02:28:34.666Z,99.90
2018-06-05T02:31:02.978Z,99.90
2018-06-05T02:33:31.292Z,99.90
2018-06-05T02:35:59.573Z,99.90
2018-06-05T02:38:27.914Z,99.90
2018-06-05T02:40:56.212Z,99.90
2018-06-05T02:48:20.661Z,99.90
2018-06-05T02:50:48.975Z,99.90
2018-06-05T02:53:17.279Z,99.90
2018-06-05T02:55:45.616Z,99.90
2018-06-05T02:58:13.959Z,99.90
2018-06-05T03:00:42.240Z,99.90
2018-06-05T03:03:10.562Z,99.90
2018-06-05T03:05:38.891Z,99.90
2018-06-05T03:08:07.212Z,99.90
2018-06-05T03:10:35.542Z,99.90
2018-06-05T03:13:03.879Z,99.90
2018-06-05T03:15:33.673Z,99.90
2018-06-05T03:18:02.064Z,99.90
2018-06-05T03:20:30.412Z,99.90
2018-06-05T03:22:58.728Z,99.90
2018-06-05T03:25:27.066Z,99.90
2018-06-05T03:27:55.401Z,99.90
2018-06-05T03:30:24.642Z,99.90
2018-06-05T03:32:52.954Z,99.90
2018-06-05T03:35:21.284Z,99.90
2018-06-05T03:37:49.611Z,99.90
2018-06-05T03:40:17.923Z,99.90
2018-06-05T03:42:46.251Z,99.90
2018-06-05T03:45:14.590Z,99.90
2018-06-05T03:47:42.938Z,99.90
2018-06-05T03:50:11.246Z,99.90
2018-06-05T03:52:39.585Z,99.90
2018-06-05T03:55:07.939Z,99.90
2018-06-05T03:57:36.263Z,99.90
2018-06-05T04:00:04.889Z,99.90
2018-06-05T04:02:33.225Z,99.90
2018-06-05T04:05:01.561Z,99.90
2018-06-05T04:07:30.226Z,99.90
2018-06-05T04:09:58.524Z,99.90
2018-06-05T04:12:26.866Z,99.90
2018-06-05T04:14:55.187Z,99.90
2018-06-05T04:17:23.565Z,99.90
2018-06-05T04:19:51.941Z,99.90
2018-06-05T04:22:20.268Z,99.90
2018-06-05T04:24:48.588Z,99.90
2018-06-05T04:27:16.885Z,99.90
2018-06-05T04:29:45.202Z,99.90
2018-06-05T04:32:13.562Z,99.90
2018-06-05T04:34:41.902Z,99.90
2018-06-05T04:37:10.332Z,99.90
2018-06-05T04:39:38.654Z,99.90
2018-06-05T04:42:07.010Z,99.90
2018-06-05T04:44:35.331Z,99.90
2018-06-05T04:47:03.650Z,99.90
2018-06-05T04:49:31.975Z,99.90
2018-06-05T04:52:00.298Z,99.90
2018-06-05T04:54:28.592Z,99.90
2018-06-05T04:56:56.956Z,99.90
2018-06-05T04:59:25.245Z,99.90
2018-06-05T05:01:53.546Z,99.90
2018-06-05T05:04:21.888Z,99.90
2018-06-05T05:06:50.189Z,99.90
2018-06-05T05:09:20.535Z,99.90
2018-06-05T05:11:49.180Z,99.90
2018-06-05T05:14:17.513Z,99.90
2018-06-05T05:16:45.809Z,99.90
2018-06-05T05:19:14.123Z,99.90
2018-06-05T05:21:42.489Z,99.90
2018-06-05T05:24:10.960Z,99.90
2018-06-05T05:26:39.317Z,99.90
2018-06-05T05:29:07.689Z,99.90
2018-06-05T05:31:36.008Z,99.90
2018-06-05T05:34:04.341Z,99.90
2018-06-05T05:36:32.687Z,99.90
2018-06-05T05:39:01.017Z,99.90
2018-06-05T05:41:29.335Z,99.90
2018-06-05T05:43:57.690Z,99.90
2018-06-05T05:46:25.998Z,99.90
2018-06-05T05:48:54.427Z,99.90
2018-06-05T05:51:22.783Z,99.90
2018-06-05T05:53:51.105Z,99.90
2018-06-05T05:56:19.450Z,99.90
2018-06-05T05:58:47.831Z,99.90
2018-06-05T06:01:16.192Z,99.90
2018-06-05T06:03:44.647Z,99.90
2018-06-05T06:06:13.054Z,99.90
2018-06-05T06:08:41.397Z,99.90
2018-06-05T06:11:09.727Z,99.90
2018-06-05T06:13:38.096Z,99.90
2018-06-05T06:16:06.460Z,99.90
2018-06-05T06:21:02.830Z,99.90
2018-06-05T06:23:31.136Z,99.90
2018-06-05T06:25:59.499Z,99.90
2018-06-05T06:28:27.817Z,99.90
2018-06-05T06:30:56.163Z,99.90
2018-06-05T06:33:24.514Z,99.90
2018-06-05T06:35:52.874Z,99.90
2018-06-05T06:38:21.197Z,99.90
2018-06-05T06:40:49.532Z,99.90
2018-06-05T06:43:17.876Z,99.90
2018-06-05T06:45:46.176Z,99.90
2018-06-05T06:50:42.568Z,99.90
2018-06-05T06:53:10.876Z,99.90
2018-06-05T06:55:39.233Z,99.90
2018-06-05T06:58:07.547Z,99.60
2018-06-05T07:00:35.850Z,99.60
2018-06-05T07:03:04.168Z,99.90
2018-06-05T07:05:32.489Z,99.90
2018-06-05T07:08:00.812Z,99.50
2018-06-05T07:10:29.160Z,99.00
2018-06-05T07:12:57.500Z,99.10
2018-06-05T07:15:25.841Z,99.00
2018-06-05T07:17:54.195Z,99.20
2018-06-05T07:20:22.563Z,98.70
2018-06-05T07:22:50.892Z,98.00
2018-06-05T07:25:19.214Z,98.80
2018-06-05T07:27:47.508Z,99.20
2018-06-05T07:30:15.880Z,99.00
2018-06-05T07:32:44.194Z,99.30
2018-06-05T07:35:12.545Z,98.80
2018-06-05T07:37:40.902Z,98.40
2018-06-05T07:42:37.600Z,98.00
2018-06-05T07:45:06.140Z,98.10
2018-06-05T07:47:34.458Z,98.20
2018-06-05T07:50:02.865Z,97.90
2018-06-05T07:52:31.212Z,98.10
2018-06-05T07:54:59.526Z,98.10
2018-06-05T07:57:27.934Z,97.70
2018-06-05T07:59:56.344Z,98.00
2018-06-05T08:02:24.688Z,98.70
2018-06-05T08:04:53.188Z,97.60
2018-06-05T08:07:21.496Z,97.60
2018-06-05T08:09:49.808Z,98.00
2018-06-05T08:12:18.136Z,97.90
2018-06-05T08:14:46.477Z,97.70
2018-06-05T08:19:43.040Z,96.50
2018-06-05T08:22:11.369Z,96.50
2018-06-05T08:24:39.723Z,95.90
2018-06-05T08:27:08.050Z,96.40
2018-06-05T08:29:36.385Z,96.30
2018-06-05T08:32:04.742Z,96.10
2018-06-05T08:34:33.060Z,96.30
2018-06-05T08:37:01.414Z,96.60
2018-06-05T08:39:29.712Z,96.10
2018-06-05T08:41:58.024Z,96.60
2018-06-05T08:44:26.334Z,96.70
2018-06-05T08:46:54.675Z,96.30
2018-06-05T08:51:51.114Z,96.60
2018-06-05T08:54:19.481Z,95.70
2018-06-05T08:56:47.762Z,96.30
2018-06-05T08:59:16.089Z,96.00
2018-06-05T09:01:44.443Z,95.80
2018-06-05T09:04:12.832Z,95.50
2018-06-05T09:06:41.170Z,95.30
2018-06-05T09:09:09.530Z,95.60
2018-06-05T09:11:37.863Z,95.60
2018-06-05T09:14:06.186Z,96.00
2018-06-05T09:16:34.492Z,95.00
2018-06-05T09:19:02.847Z,95.70
2018-06-05T09:21:31.170Z,95.60
2018-06-05T09:23:59.533Z,95.70
2018-06-05T09:26:27.900Z,95.60
2018-06-05T09:28:56.234Z,95.00
2018-06-05T09:31:24.547Z,95.30
2018-06-05T09:33:52.978Z,94.20
2018-06-05T09:36:21.368Z,94.60
2018-06-05T09:38:49.732Z,93.70
2018-06-05T09:41:18.036Z,93.70
2018-06-05T09:43:46.402Z,94.20
2018-06-05T09:46:14.728Z,94.70
2018-06-05T09:48:43.165Z,94.50
2018-06-05T09:51:12.193Z,94.00
2018-06-05T09:53:41.010Z,94.20
2018-06-05T09:56:09.329Z,94.60
2018-06-05T09:58:37.695Z,94.30
2018-06-05T10:01:06.071Z,94.90
2018-06-05T10:03:34.404Z,93.30
2018-06-05T10:06:02.814Z,93.60
2018-06-05T10:08:31.181Z,93.60
2018-06-05T10:10:59.516Z,94.10
2018-06-05T10:18:24.017Z,93.90
2018-06-05T10:20:52.401Z,93.40
2018-06-05T10:23:20.740Z,93.80
2018-06-05T10:25:49.054Z,93.90
2018-06-05T10:28:17.400Z,93.70
2018-06-05T10:30:45.730Z,93.70
2018-06-05T10:33:14.064Z,92.80
2018-06-05T10:35:42.434Z,92.20
2018-06-05T10:38:10.780Z,93.00
2018-06-05T10:40:39.250Z,92.70
2018-06-05T10:45:35.763Z,92.60
2018-06-05T10:48:04.198Z,92.90
2018-06-05T10:50:32.867Z,92.40
2018-06-05T10:53:01.354Z,92.20
2018-06-05T10:55:29.752Z,92.90
2018-06-05T10:57:58.085Z,92.10
2018-06-05T11:00:26.512Z,91.70
2018-06-05T11:02:54.847Z,91.70
2018-06-05T11:05:23.196Z,92.00
2018-06-05T11:07:51.496Z,92.10
2018-06-05T11:10:19.816Z,92.40
2018-06-05T11:12:48.166Z,92.40
2018-06-05T11:15:16.476Z,92.40
2018-06-05T11:17:44.822Z,91.80
2018-06-05T11:20:13.184Z,92.00
2018-06-05T11:22:41.500Z,92.50
2018-06-05T11:25:09.810Z,91.60
2018-06-05T11:27:38.128Z,92.90
2018-06-05T11:30:06.582Z,93.70
2018-06-05T11:32:35.031Z,93.00
2018-06-05T11:35:03.676Z,92.30
2018-06-05T11:40:00.358Z,91.60
2018-06-05T11:42:28.676Z,90.30
2018-06-05T11:44:57.106Z,89.60
2018-06-05T11:47:25.466Z,90.30
2018-06-05T11:49:53.843Z,91.20
2018-06-05T11:52:22.228Z,91.90
2018-06-05T11:54:50.919Z,92.30
2018-06-05T11:57:19.453Z,91.40
2018-06-05T11:59:47.850Z,91.20
2018-06-05T12:02:16.245Z,89.80
2018-06-05T12:07:13.309Z,89.80
2018-06-05T12:09:41.664Z,89.20
2018-06-05T12:12:10.048Z,87.40
2018-06-05T12:14:38.386Z,90.00
2018-06-05T12:17:06.840Z,89.30
2018-06-05T12:19:35.514Z,89.40
2018-06-05T12:22:03.872Z,87.70
2018-06-05T12:24:32.212Z,87.40
2018-06-05T12:27:00.547Z,87.20
2018-06-05T12:29:28.950Z,89.10
2018-06-05T12:31:57.326Z,87.40
2018-06-05T12:34:25.657Z,88.10
2018-06-05T12:36:54.032Z,86.70
2018-06-05T12:39:22.465Z,88.00
2018-06-05T12:41:50.895Z,87.50
2018-06-05T12:44:19.288Z,87.00
2018-06-05T12:46:47.729Z,88.10
2018-06-05T12:49:16.048Z,88.00
2018-06-05T12:51:44.426Z,87.80
2018-06-05T12:54:12.754Z,87.40
2018-06-05T12:56:41.157Z,86.70
2018-06-05T12:59:09.539Z,85.70
2018-06-05T13:01:37.895Z,84.30
2018-06-05T13:04:06.251Z,86.20
2018-06-05T13:06:34.571Z,81.70
2018-06-05T13:09:02.994Z,83.70
2018-06-05T13:11:31.353Z,83.70
2018-06-05T13:13:59.702Z,79.00
2018-06-05T13:16:28.129Z,79.90
2018-06-05T13:18:56.457Z,82.40
2018-06-05T13:21:24.795Z,83.20
2018-06-05T13:23:53.114Z,83.70
2018-06-05T13:26:21.453Z,81.80
2018-06-05T13:28:49.761Z,79.80
2018-06-05T13:31:18.111Z,80.00
2018-06-05T13:33:46.422Z,80.40
2018-06-05T13:36:14.761Z,76.80
2018-06-05T13:38:43.133Z,78.30
2018-06-05T13:41:11.528Z,76.20
2018-06-05T13:43:39.852Z,76.60
2018-06-05T13:46:08.215Z,76.30
2018-06-05T13:48:36.559Z,74.00
2018-06-05T13:52:34.194Z,73.70
2018-06-05T13:55:02.495Z,73.80
2018-06-05T13:57:30.830Z,74.10
2018-06-05T13:59:59.196Z,73.90
2018-06-05T14:02:27.514Z,72.30
2018-06-05T14:04:55.819Z,71.40
2018-06-05T14:07:24.201Z,70.20
2018-06-05T14:09:52.571Z,70.00
2018-06-05T14:12:20.891Z,68.50
2018-06-05T14:14:49.585Z,67.90
2018-06-05T14:17:18.016Z,69.20
2018-06-05T14:19:46.604Z,69.80
2018-06-05T14:22:15.017Z,69.70
2018-06-05T14:24:43.486Z,67.40
2018-06-05T14:27:11.829Z,65.30
2018-06-05T14:29:40.290Z,63.80
2018-06-05T14:32:08.647Z,63.30
2018-06-05T14:34:37.020Z,63.10
2018-06-05T14:37:05.446Z,65.70
2018-06-05T14:42:08.395Z,65.60
2018-06-05T14:44:36.764Z,65.40
2018-06-05T14:47:05.118Z,62.30
2018-06-05T14:49:33.468Z,62.30
2018-06-05T14:52:01.878Z,62.10
2018-06-05T14:54:30.263Z,64.00
2018-06-05T14:56:58.584Z,65.10
2018-06-05T14:59:26.912Z,66.60
2018-06-05T15:01:55.258Z,70.40
2018-06-05T15:04:23.622Z,68.20
2018-06-05T15:06:52.088Z,67.50
2018-06-05T15:09:20.547Z,68.10
2018-06-05T15:11:48.874Z,67.60
2018-06-05T15:14:17.241Z,69.00
2018-06-05T15:16:45.552Z,68.60
2018-06-05T15:19:13.915Z,68.80
2018-06-05T15:21:42.276Z,68.10
2018-06-05T15:24:10.616Z,68.30
2018-06-05T15:26:38.920Z,67.50
2018-06-05T15:29:07.337Z,67.20
2018-06-05T15:31:35.686Z,67.10
2018-06-05T15:34:04.115Z,68.80
2018-06-05T15:36:32.438Z,69.00
2018-06-05T15:39:00.830Z,69.00
2018-06-05T15:41:29.162Z,68.50
2018-06-05T15:43:57.523Z,70.60
2018-06-05T15:46:25.829Z,70.00
2018-06-05T15:48:54.198Z,69.80
2018-06-05T15:53:50.723Z,69.30
2018-06-05T15:56:19.034Z,69.00
2018-06-05T15:58:47.446Z,70.10
2018-06-05T16:01:15.816Z,68.70
2018-06-05T16:03:44.153Z,70.80
2018-06-05T16:06:12.520Z,71.20
2018-06-05T16:08:40.872Z,71.20
2018-06-05T16:11:09.252Z,70.90
2018-06-05T16:13:37.600Z,69.90
2018-06-05T16:16:06.069Z,69.60
2018-06-05T16:18:34.434Z,68.40
2018-06-05T16:21:02.772Z,68.20
2018-06-05T16:23:31.125Z,69.20
2018-06-05T16:25:59.464Z,68.70
2018-06-05T16:28:27.828Z,68.20
2018-06-05T16:30:56.168Z,68.00
2018-06-05T16:33:24.553Z,69.20
2018-06-05T16:35:52.850Z,69.20
2018-06-05T16:38:21.183Z,68.90
2018-06-05T16:40:49.552Z,68.60
2018-06-05T16:43:17.898Z,68.50
2018-06-05T16:45:46.217Z,67.90
2018-06-05T16:48:14.552Z,68.60
2018-06-05T16:50:42.978Z,69.10
2018-06-05T16:53:11.288Z,68.80
2018-06-05T16:55:39.632Z,70.00
2018-06-05T16:58:07.988Z,69.90
2018-06-05T17:00:36.309Z,69.50
2018-06-05T17:03:04.662Z,69.40
2018-06-05T17:05:32.978Z,70.00
2018-06-05T17:08:01.289Z,70.30
2018-06-05T17:10:29.642Z,70.00
2018-06-05T17:12:57.998Z,70.50
2018-06-05T17:15:26.348Z,71.50
2018-06-05T17:17:54.712Z,72.40
2018-06-05T17:20:23.091Z,72.30
2018-06-05T17:22:51.435Z,72.10
2018-06-05T17:25:19.803Z,72.60
2018-06-05T17:27:48.194Z,72.70
2018-06-05T17:30:16.613Z,72.10
2018-06-05T17:32:44.991Z,72.80
2018-06-05T17:35:13.343Z,74.00
2018-06-05T17:37:41.711Z,74.00
2018-06-05T17:40:10.075Z,73.30
2018-06-05T17:42:38.462Z,74.70
2018-06-05T17:45:06.859Z,75.10
2018-06-05T17:47:35.202Z,75.30
2018-06-05T17:50:03.589Z,74.70
2018-06-05T17:52:31.957Z,75.00
2018-06-05T17:55:00.309Z,75.60
2018-06-05T17:57:28.707Z,75.60
2018-06-05T17:59:57.026Z,75.20
2018-06-05T18:02:25.619Z,75.80
2018-06-05T18:04:53.964Z,75.60
2018-06-05T18:07:22.287Z,76.20
2018-06-05T18:09:50.616Z,76.80
2018-06-05T18:12:18.974Z,77.50
2018-06-05T18:14:47.291Z,78.70
2018-06-05T18:17:15.653Z,78.70
2018-06-05T18:19:44.021Z,78.10
2018-06-05T18:22:12.365Z,78.20
2018-06-05T18:24:40.719Z,78.20
2018-06-05T18:27:09.059Z,78.30
2018-06-05T18:29:37.406Z,79.40
2018-06-05T18:32:05.949Z,79.70
2018-06-05T18:34:34.341Z,79.70
2018-06-05T18:37:02.732Z,80.60
2018-06-05T18:39:31.137Z,80.80
2018-06-05T18:41:59.505Z,80.70
2018-06-05T18:44:27.865Z,81.20
2018-06-05T18:46:56.250Z,81.20
2018-06-05T18:49:24.669Z,81.80
2018-06-05T18:54:21.137Z,82.60
2018-06-05T18:56:49.584Z,83.20
2018-06-05T18:59:17.931Z,83.50
2018-06-05T19:01:46.269Z,83.50
2018-06-05T19:04:14.653Z,83.60
2018-06-05T19:06:43.183Z,84.20
2018-06-05T19:09:11.594Z,84.40
2018-06-05T19:11:40.165Z,84.20
2018-06-05T19:14:08.630Z,84.70
2018-06-05T19:16:37.064Z,84.80
2018-06-05T19:19:05.447Z,85.40
2018-06-05T19:21:33.827Z,85.80
2018-06-05T19:24:02.174Z,86.40
2018-06-05T19:26:30.573Z,86.90
2018-06-05T19:28:58.951Z,88.20
2018-06-05T19:31:27.310Z,88.20
2018-06-05T19:33:55.677Z,88.70
2018-06-05T19:36:24.070Z,89.00
2018-06-05T19:38:52.476Z,89.30
2018-06-05T19:41:20.859Z,89.30
2018-06-05T19:43:49.225Z,90.00
2018-06-05T19:46:17.575Z,90.00
2018-06-05T19:48:45.996Z,90.30
2018-06-05T19:51:14.525Z,90.70
2018-06-05T19:53:43.103Z,90.80
2018-06-05T19:56:11.549Z,91.20
2018-06-05T19:58:40.139Z,91.00
2018-06-05T20:01:08.475Z,91.20
2018-06-05T20:03:36.850Z,91.50
2018-06-05T20:06:05.466Z,91.80
2018-06-05T20:08:35.169Z,92.00
2018-06-05T20:11:03.884Z,92.30
2018-06-05T20:13:32.268Z,92.10
2018-06-05T20:16:00.633Z,92.30
2018-06-05T20:18:29.053Z,92.50
2018-06-05T20:20:57.941Z,92.60
2018-06-05T20:23:26.315Z,92.80
2018-06-05T20:25:54.661Z,92.80
2018-06-05T20:28:23.051Z,93.00
2018-06-05T20:30:51.492Z,93.20
2018-06-05T20:33:19.818Z,93.20
2018-06-05T20:35:48.145Z,93.30
2018-06-05T20:38:16.483Z,93.40
2018-06-05T20:40:44.827Z,93.40
2018-06-05T20:43:13.159Z,93.50
2018-06-05T20:45:41.456Z,93.70
2018-06-05T20:50:37.859Z,94.10
2018-06-05T20:53:06.238Z,94.10
2018-06-05T20:55:34.635Z,94.10
2018-06-05T20:58:02.994Z,94.70
2018-06-05T21:00:31.387Z,94.50
2018-06-05T21:02:59.721Z,94.70
2018-06-05T21:05:28.041Z,94.60
2018-06-05T21:07:56.409Z,94.70
2018-06-05T21:10:24.839Z,94.70
2018-06-05T21:12:53.262Z,94.80
2018-06-05T21:15:21.574Z,94.90
2018-06-05T21:17:49.910Z,95.20
2018-06-05T21:20:18.213Z,95.30
2018-06-05T21:22:46.652Z,95.40
2018-06-05T21:25:14.983Z,95.40
2018-06-05T21:27:43.277Z,95.40
2018-06-05T21:30:11.599Z,95.60
2018-06-05T21:32:39.929Z,95.70
2018-06-05T21:35:08.266Z,95.80
2018-06-05T21:37:36.621Z,95.70
2018-06-05T21:40:04.975Z,95.90
2018-06-05T21:42:33.277Z,95.90
2018-06-05T21:45:01.603Z,96.10
2018-06-05T21:47:29.908Z,96.20
2018-06-05T21:49:58.253Z,96.40
2018-06-05T21:52:26.567Z,96.40
2018-06-05T21:54:54.863Z,96.60
2018-06-05T21:57:23.200Z,96.60
2018-06-05T21:59:51.671Z,96.60
2018-06-05T22:02:20.029Z,96.70
2018-06-05T22:04:48.370Z,96.80
2018-06-05T22:07:16.687Z,96.90
2018-06-05T22:09:45.023Z,96.90
2018-06-05T22:12:13.367Z,96.90
2018-06-05T22:14:41.725Z,97.00
2018-06-05T22:17:10.064Z,97.20
2018-06-05T22:19:38.405Z,97.20
2018-06-05T22:22:06.755Z,97.30
2018-06-05T22:24:35.084Z,97.30
2018-06-05T22:27:03.403Z,97.30
2018-06-05T22:29:31.715Z,97.40
2018-06-05T22:32:00.026Z,97.50
2018-06-05T22:34:28.368Z,97.50
2018-06-05T22:36:56.717Z,97.80
2018-06-05T22:39:25.057Z,97.80
2018-06-05T22:41:53.407Z,97.90
2018-06-05T22:44:21.738Z,97.90
2018-06-05T22:46:50.035Z,98.00
2018-06-05T22:49:18.363Z,98.10
2018-06-05T22:51:46.704Z,98.00
2018-06-05T22:54:15.025Z,98.20
2018-06-05T22:56:43.339Z,98.40
2018-06-05T22:59:11.642Z,98.40
2018-06-05T23:01:39.951Z,98.60
2018-06-05T23:04:08.441Z,98.70
2018-06-05T23:06:36.771Z,98.70
2018-06-05T23:09:06.863Z,98.80
2018-06-05T23:11:35.729Z,98.90
2018-06-05T23:14:04.043Z,99.10
2018-06-05T23:16:32.423Z,99.10
2018-06-05T23:19:00.757Z,99.40
2018-06-05T23:21:29.045Z,99.50
2018-06-05T23:23:57.369Z,99.60
2018-06-05T23:26:25.668Z,99.90
2018-06-05T23:28:54.005Z,99.90
2018-06-05T23:31:22.319Z,99.90
2018-06-05T23:33:50.607Z,99.90
2018-06-05T23:36:18.912Z,99.90
2018-06-05T23:38:47.219Z,99.90
2018-06-05T23:41:15.546Z,99.90
2018-06-05T23:43:43.833Z,99.90
2018-06-05T23:46:12.213Z,99.90
2018-06-05T23:48:40.569Z,99.90
2018-06-05T23:51:08.958Z,99.90
2018-06-05T23:53:37.299Z,99.90
2018-06-05T23:56:05.598Z,99.90
2018-06-05T23:58:33.925Z,99.90
